Time;durP1;ratioP1;P1;durP2;ratioP2;P2;SDS_P1;SDS_P2;PMS_P1;PMS_P2;Temp;Humidity;BMP_temperature;BMP_pressure;BME280_temperature;BME280_humidity;BME280_pressure;Samples;Min_cycle;Max_cycle;Signal;HPM_P1;HPM_P2
2022/09/16 00:02:02;;;;;;;4.53;3.17;;;18.30;79.00;;;;;;5095072;28;20112;-76
2022/09/16 00:04:27;;;;;;;3.90;3.50;;;18.40;79.10;;;;;;5094738;28;20119;-75
2022/09/16 00:06:53;;;;;;;3.30;3.00;;;18.40;79.10;;;;;;5096337;28;20025;-76
2022/09/16 00:09:19;;;;;;;3.47;3.13;;;18.40;79.10;;;;;;5096081;28;20036;-76
2022/09/16 00:11:44;;;;;;;4.47;3.20;;;18.30;79.10;;;;;;5097040;28;20378;-77
2022/09/16 00:14:10;;;;;;;3.50;3.15;;;18.40;79.10;;;;;;5094738;28;20032;-75
2022/09/16 00:16:36;;;;;;;4.07;3.40;;;18.40;79.20;;;;;;5095988;28;20020;-75
2022/09/16 00:19:02;;;;;;;3.53;3.22;;;18.30;79.10;;;;;;5094736;28;20131;-75
2022/09/16 00:21:29;;;;;;;4.25;3.50;;;18.40;79.20;;;;;;5095741;28;20426;-76
2022/09/16 00:23:55;;;;;;;3.28;2.90;;;18.40;79.30;;;;;;5095516;28;20466;-75
2022/09/16 00:26:22;;;;;;;4.22;3.30;;;18.40;79.30;;;;;;5095276;28;20025;-76
2022/09/16 00:28:49;;;;;;;3.63;3.20;;;18.30;79.30;;;;;;5095467;28;20074;-76
2022/09/16 00:31:15;;;;;;;3.60;3.30;;;18.40;79.30;;;;;;5095535;28;20462;-77
2022/09/16 00:33:41;;;;;;;3.75;3.40;;;18.30;79.30;;;;;;5095344;28;20027;-76
2022/09/16 00:36:18;;;;;;;3.42;3.00;;;18.30;79.30;;;;;;5094003;28;20032;-76
2022/09/16 00:38:44;;;;;;;3.83;3.35;;;18.30;79.40;;;;;;5095476;28;20020;-76
2022/09/16 00:41:33;;;;;;;3.75;3.35;;;18.40;79.90;;;;;;5095408;28;20131;-76
2022/09/16 00:44:01;;;;;;;4.18;3.30;;;18.30;79.40;;;;;;5095453;28;20370;-77
2022/09/16 00:46:42;;;;;;;3.80;3.38;;;18.40;79.40;;;;;;5077034;28;20028;-76
2022/09/16 00:49:17;;;;;;;3.47;3.10;;;18.30;79.40;;;;;;5094913;28;20082;-76
2022/09/16 00:51:46;;;;;;;3.38;3.08;;;18.30;79.40;;;;;;5094996;28;20028;-76
2022/09/16 00:54:13;;;;;;;4.18;3.10;;;18.30;79.40;;;;;;5095311;28;20099;-76
2022/09/16 00:56:43;;;;;;;3.40;3.10;;;18.30;79.50;;;;;;5076877;28;20102;-76
2022/09/16 00:59:25;;;;;;;3.50;3.13;;;18.30;79.60;;;;;;5076537;28;20028;-76
2022/09/16 01:01:53;;;;;;;3.13;2.83;;;18.30;79.70;;;;;;5076017;28;20034;-76
2022/09/16 01:04:45;;;;;;;3.80;3.35;;;18.30;79.60;;;;;;5076689;28;20481;-76
2022/09/16 01:07:11;;;;;;;3.53;3.13;;;18.30;79.90;;;;;;5083883;28;20032;-76
2022/09/16 01:09:38;;;;;;;3.33;3.03;;;18.20;79.60;;;;;;5076316;28;20439;-76
2022/09/16 01:12:04;;;;;;;3.22;2.92;;;18.30;79.70;;;;;;5094367;28;20454;-77
2022/09/16 01:17:45;;;;;;;4.03;2.92;;;18.30;79.80;;;;;;5094469;28;20116;-77
2022/09/16 01:20:42;;;;;;;3.40;3.10;;;18.30;79.90;;;;;;5079747;28;20035;-76
2022/09/16 01:23:58;;;;;;;3.55;3.25;;;18.20;80.20;;;;;;5094390;28;20024;-77
2022/09/16 01:26:42;;;;;;;;;;;18.30;80.10;;;;;;5094722;28;20051;-76
2022/09/16 01:29:11;;;;;;;3.33;3.03;;;18.20;80.60;;;;;;5094479;28;19916;-75
2022/09/16 01:32:33;;;;;;;3.33;2.90;;;18.20;79.70;;;;;;5075905;28;20034;-77
2022/09/16 01:35:13;;;;;;;3.92;2.80;;;18.20;80.30;;;;;;4992654;28;20121;-77
2022/09/16 01:37:50;;;;;;;3.53;3.00;;;18.20;79.90;;;;;;4992674;28;20126;-76
2022/09/16 01:40:38;;;;;;;3.58;3.10;;;18.20;80.00;;;;;;5069911;28;20036;-77
2022/09/16 01:43:28;;;;;;;3.38;2.92;;;18.20;80.20;;;;;;5076262;28;20144;-76
2022/09/16 01:46:27;;;;;;;3.13;2.85;;;18.20;80.20;;;;;;5094230;28;20051;-76
2022/09/16 01:49:01;;;;;;;3.17;2.88;;;18.20;80.20;;;;;;5076002;28;20036;-76
2022/09/16 01:51:43;;;;;;;3.55;3.03;;;18.20;80.10;;;;;;5094192;28;20024;-76
2022/09/16 01:54:19;;;;;;;3.53;3.15;;;18.30;80.20;;;;;;5076543;28;20058;-76
2022/09/16 01:56:59;;;;;;;5.28;3.00;;;18.20;80.10;;;;;;5094281;28;20473;-76
2022/09/16 01:59:49;;;;;;;3.08;2.78;;;18.20;80.20;;;;;;5094434;28;20040;-76
2022/09/16 02:02:20;;;;;;;3.20;2.90;;;18.20;80.30;;;;;;5061321;28;20097;-76
2022/09/16 02:04:51;;;;;;;3.60;3.30;;;18.20;80.70;;;;;;5076757;28;20376;-76
2022/09/16 02:07:22;;;;;;;3.50;3.17;;;18.20;80.20;;;;;;5095223;28;20032;-76
2022/09/16 02:10:07;;;;;;;4.35;3.03;;;18.20;80.20;;;;;;5093761;28;20039;-77
2022/09/16 02:12:36;;;;;;;3.35;3.05;;;18.20;80.20;;;;;;5075565;28;20026;-76
2022/09/16 02:15:08;;;;;;;3.22;2.92;;;18.20;80.20;;;;;;5093965;28;20024;-76
2022/09/16 02:17:41;;;;;;;3.33;2.90;;;18.20;80.30;;;;;;5093792;28;20031;-76
2022/09/16 02:20:12;;;;;;;2.85;2.65;;;18.20;80.30;;;;;;5075742;28;20082;-76
2022/09/16 02:22:45;;;;;;;3.08;2.88;;;18.20;80.40;;;;;;5075793;28;20032;-76
2022/09/16 02:25:13;;;;;;;3.30;3.00;;;18.20;80.40;;;;;;5078306;28;20161;-76
2022/09/16 02:27:41;;;;;;;3.20;2.83;;;18.20;80.40;;;;;;5079660;28;20474;-75
2022/09/16 02:30:10;;;;;;;3.58;2.97;;;18.20;80.50;;;;;;5097814;28;20046;-76
2022/09/16 02:32:50;;;;;;;3.50;3.20;;;18.20;80.50;;;;;;5098152;28;20028;-77
2022/09/16 02:35:19;;;;;;;3.38;2.97;;;18.20;80.50;;;;;;5079843;28;20358;-77
2022/09/16 02:37:50;;;;;;;3.30;3.00;;;18.20;80.50;;;;;;5097739;28;20096;-76
2022/09/16 02:40:30;;;;;;;4.70;3.20;;;18.20;80.50;;;;;;5079988;28;20077;-76
2022/09/16 02:42:57;;;;;;;3.05;2.75;;;18.20;80.50;;;;;;5097498;28;20401;-76
2022/09/16 02:45:30;;;;;;;3.05;2.80;;;17.90;80.40;;;;;;5097618;28;20462;-77
2022/09/16 02:48:16;;;;;;;3.25;2.95;;;18.20;80.50;;;;;;5079317;28;20051;-77
2022/09/16 02:51:20;;;;;;;3.03;2.72;;;18.20;80.60;;;;;;5079426;28;20039;-79
2022/09/16 02:53:57;;;;;;;3.50;3.20;;;18.20;80.70;;;;;;5094721;28;20521;-77
2022/09/16 02:56:35;;;;;;;3.30;3.00;;;18.20;80.60;;;;;;5079513;28;20024;-76
2022/09/16 02:59:04;;;;;;;2.92;2.63;;;18.20;80.60;;;;;;5079603;28;20035;-76
2022/09/16 03:01:35;;;;;;;3.40;3.10;;;18.20;80.60;;;;;;5097233;28;20020;-77
2022/09/16 03:04:02;;;;;;;3.22;2.92;;;18.20;80.60;;;;;;5097485;28;20020;-76
2022/09/16 03:06:28;;;;;;;3.45;3.13;;;18.20;80.70;;;;;;5097268;28;20028;-76
2022/09/16 03:08:59;;;;;;;3.40;3.10;;;18.20;80.70;;;;;;5096596;28;20043;-76
2022/09/16 03:11:28;;;;;;;3.72;3.10;;;18.20;80.70;;;;;;5097176;28;20450;-76
2022/09/16 03:14:10;;;;;;;3.50;3.05;;;18.20;80.80;;;;;;5096844;28;20465;-76
2022/09/16 03:16:55;;;;;;;3.42;3.13;;;18.20;80.90;;;;;;5097264;28;20020;-76
2022/09/16 03:19:44;;;;;;;3.42;3.13;;;18.20;80.80;;;;;;5096765;28;20024;-76
2022/09/16 03:23:02;;;;;;;2.90;2.60;;;18.20;80.90;;;;;;5078684;28;20024;-77
2022/09/16 03:25:47;;;;;;;3.63;3.10;;;18.20;81.10;;;;;;4995031;28;20037;-77
2022/09/16 03:28:20;;;;;;;3.75;3.05;;;18.20;80.80;;;;;;4978610;28;20034;-76
2022/09/16 03:31:14;;;;;;;3.22;2.92;;;18.20;80.80;;;;;;5052905;28;20063;-77
2022/09/16 03:33:45;;;;;;;3.28;2.97;;;18.20;81.00;;;;;;5078601;28;20028;-77
2022/09/16 03:36:16;;;;;;;3.20;2.90;;;18.20;81.40;;;;;;5096456;28;20386;-77
2022/09/16 03:38:42;;;;;;;3.53;3.22;;;18.20;80.90;;;;;;5078744;28;20412;-76
2022/09/16 03:41:10;;;;;;;3.15;2.85;;;18.20;80.90;;;;;;5081494;28;20473;-77
2022/09/16 03:43:35;;;;;;;3.83;3.30;;;18.20;81.00;;;;;;5096319;28;20024;-76
2022/09/16 03:46:02;;;;;;;3.30;3.00;;;18.20;81.00;;;;;;5095377;28;20362;-75
2022/09/16 03:48:27;;;;;;;3.58;3.00;;;18.20;81.00;;;;;;5094824;28;20032;-78
2022/09/16 03:50:53;;;;;;;3.47;3.10;;;18.20;81.00;;;;;;5096623;28;20035;-76
2022/09/16 03:53:19;;;;;;;3.55;3.20;;;18.20;81.00;;;;;;5095617;28;20024;-76
2022/09/16 03:55:48;;;;;;;3.47;3.17;;;18.20;81.00;;;;;;5095382;28;20021;-75
2022/09/16 03:58:14;;;;;;;3.60;3.30;;;18.20;81.00;;;;;;5094950;28;20028;-77
2022/09/16 04:00:39;;;;;;;4.30;3.42;;;18.20;81.00;;;;;;5096355;28;20024;-76
2022/09/16 04:03:05;;;;;;;3.47;3.17;;;18.30;81.10;;;;;;5095473;28;20024;-76
2022/09/16 04:05:30;;;;;;;3.25;3.03;;;18.30;81.10;;;;;;5095729;28;20369;-77
2022/09/16 04:07:56;;;;;;;3.58;3.05;;;18.30;81.10;;;;;;5096170;28;20389;-76
2022/09/16 04:10:22;;;;;;;3.45;3.03;;;18.30;81.10;;;;;;5094743;28;20378;-77
2022/09/16 04:12:48;;;;;;;3.60;3.30;;;18.30;81.10;;;;;;5096100;28;20031;-77
2022/09/16 04:15:13;;;;;;;3.70;3.40;;;18.30;81.10;;;;;;5094794;28;20462;-76
2022/09/16 04:17:39;;;;;;;3.53;3.05;;;18.30;81.00;;;;;;5095876;28;20043;-77
2022/09/16 04:20:07;;;;;;;3.30;3.00;;;18.30;81.00;;;;;;5094869;28;20122;-76
2022/09/16 04:22:32;;;;;;;4.00;3.50;;;18.40;81.00;;;;;;5095055;28;20052;-76
2022/09/16 04:24:58;;;;;;;3.47;3.17;;;18.40;80.90;;;;;;5095767;28;20458;-77
2022/09/16 04:27:24;;;;;;;3.45;3.15;;;18.40;80.90;;;;;;5094329;28;20466;-76
2022/09/16 04:29:50;;;;;;;3.58;3.25;;;18.40;80.90;;;;;;5095400;28;20043;-77
2022/09/16 04:32:15;;;;;;;3.53;3.22;;;18.40;80.90;;;;;;5095217;28;20358;-76
2022/09/16 04:34:42;;;;;;;3.38;3.08;;;18.40;80.80;;;;;;5094221;28;20067;-77
2022/09/16 04:37:07;;;;;;;3.42;3.13;;;18.40;80.90;;;;;;5094571;28;20081;-76
2022/09/16 04:39:33;;;;;;;3.70;3.30;;;18.40;80.90;;;;;;5094250;28;20028;-76
2022/09/16 04:41:59;;;;;;;3.50;3.20;;;18.40;80.90;;;;;;5095970;28;20048;-76
2022/09/16 04:44:26;;;;;;;4.25;3.40;;;18.40;80.90;;;;;;5095310;28;20050;-76
2022/09/16 04:46:52;;;;;;;3.55;3.25;;;18.50;80.90;;;;;;5076081;28;20482;-77
2022/09/16 04:49:17;;;;;;;3.35;3.05;;;18.50;80.90;;;;;;5095131;28;20496;-76
2022/09/16 04:51:43;;;;;;;3.60;3.30;;;18.50;80.90;;;;;;5077256;28;20027;-76
2022/09/16 04:54:10;;;;;;;3.50;3.20;;;18.50;80.90;;;;;;5094924;28;20027;-76
2022/09/16 04:56:36;;;;;;;3.80;3.40;;;18.50;80.90;;;;;;5076814;28;20020;-76
2022/09/16 04:59:04;;;;;;;3.72;3.40;;;18.50;81.00;;;;;;5076786;28;20118;-76
2022/09/16 05:01:32;;;;;;;3.58;3.17;;;18.50;81.00;;;;;;5095245;28;20020;-75
2022/09/16 05:04:01;;;;;;;3.45;3.13;;;18.50;81.00;;;;;;5095521;28;20024;-76
2022/09/16 05:06:32;;;;;;;3.40;3.10;;;18.50;80.90;;;;;;5094884;28;20016;-76
2022/09/16 05:08:59;;;;;;;5.97;3.13;;;18.50;80.90;;;;;;5094949;28;20028;-74
2022/09/16 05:11:28;;;;;;;3.28;2.97;;;18.60;80.90;;;;;;5094538;28;20028;-76
2022/09/16 05:13:57;;;;;;;4.30;3.70;;;18.60;80.90;;;;;;5076456;28;20115;-76
2022/09/16 05:16:23;;;;;;;3.00;2.80;;;18.60;80.90;;;;;;5094634;28;20028;-76
2022/09/16 05:18:50;;;;;;;3.60;3.30;;;18.60;80.90;;;;;;5094532;28;20499;-78
2022/09/16 05:21:18;;;;;;;3.40;3.10;;;18.70;80.90;;;;;;5079683;28;20024;-76
2022/09/16 05:23:44;;;;;;;3.75;3.30;;;18.70;80.80;;;;;;5095067;28;20028;-76
2022/09/16 05:26:13;;;;;;;3.78;3.35;;;18.70;80.60;;;;;;5094642;28;20032;-76
2022/09/16 05:28:39;;;;;;;3.50;3.20;;;18.80;80.60;;;;;;5076219;28;20385;-77
2022/09/16 05:31:09;;;;;;;3.53;3.20;;;18.80;80.60;;;;;;5076200;28;20035;-77
2022/09/16 05:33:35;;;;;;;3.70;3.30;;;18.70;80.50;;;;;;5094463;28;20028;-76
2022/09/16 05:36:10;;;;;;;3.35;3.05;;;18.80;80.60;;;;;;5094335;28;20020;-79
2022/09/16 05:38:35;;;;;;;;;;;18.80;80.60;;;;;;5094847;28;20031;-76
2022/09/16 05:41:03;;;;;;;3.30;2.90;;;18.70;80.90;;;;;;5075934;28;19930;-77
2022/09/16 05:43:29;;;;;;;3.17;2.88;;;18.70;80.40;;;;;;5093471;28;20061;-76
2022/09/16 05:45:56;;;;;;;3.10;2.70;;;18.80;80.50;;;;;;5092968;28;20059;-76
2022/09/16 05:48:23;;;;;;;2.92;2.70;;;18.80;80.50;;;;;;5094005;28;20377;-76
2022/09/16 05:50:59;;;;;;;2.95;2.65;;;18.70;80.40;;;;;;5092969;28;20039;-77
2022/09/16 05:53:26;;;;;;;3.00;2.70;;;18.70;80.50;;;;;;5092780;28;20028;-72
2022/09/16 05:55:56;;;;;;;3.17;2.88;;;18.70;80.40;;;;;;5094007;28;20040;-77
2022/09/16 05:58:22;;;;;;;2.90;2.70;;;18.70;80.40;;;;;;5093468;28;20089;-78
2022/09/16 06:00:48;;;;;;;2.63;2.42;;;18.70;80.40;;;;;;5092666;28;20454;-77
2022/09/16 06:03:14;;;;;;;3.10;2.70;;;18.70;80.50;;;;;;5094264;28;20028;-77
2022/09/16 06:05:40;;;;;;;2.78;2.50;;;18.70;80.40;;;;;;5093938;28;20024;-76
2022/09/16 06:08:05;;;;;;;3.17;2.88;;;18.70;81.00;;;;;;5093106;28;20416;-77
2022/09/16 06:10:35;;;;;;;2.60;2.40;;;18.70;80.50;;;;;;5093324;28;20531;-79
2022/09/16 06:13:01;;;;;;;2.75;2.50;;;18.60;80.40;;;;;;5093043;28;20020;-77
2022/09/16 06:15:27;;;;;;;3.05;2.75;;;18.60;80.50;;;;;;5094104;28;20099;-78
2022/09/16 06:17:53;;;;;;;2.55;2.35;;;18.60;80.50;;;;;;5092642;28;20481;-78
2022/09/16 06:20:19;;;;;;;2.72;2.53;;;18.60;80.50;;;;;;5092904;28;20462;-78
2022/09/16 06:22:45;;;;;;;2.58;2.38;;;18.60;80.60;;;;;;5093925;28;20045;-76
2022/09/16 06:25:10;;;;;;;2.53;2.33;;;18.60;80.60;;;;;;5092841;28;20060;-76
2022/09/16 06:27:36;;;;;;;2.58;2.38;;;18.70;80.60;;;;;;5093903;28;20033;-77
2022/09/16 06:30:03;;;;;;;3.17;2.33;;;18.70;80.60;;;;;;5093739;28;20034;-77
2022/09/16 06:32:32;;;;;;;2.35;2.15;;;18.70;81.10;;;;;;5093851;28;20036;-75
2022/09/16 06:34:57;;;;;;;2.55;2.35;;;18.70;80.50;;;;;;5093787;28;20109;-76
2022/09/16 06:37:24;;;;;;;2.70;2.50;;;18.70;80.40;;;;;;5092396;28;20044;-76
2022/09/16 06:39:50;;;;;;;2.13;1.92;;;18.80;80.40;;;;;;5092457;28;20039;-76
2022/09/16 06:42:16;;;;;;;3.15;2.45;;;18.80;80.40;;;;;;5092260;28;20044;-76
2022/09/16 06:44:42;;;;;;;2.92;2.63;;;18.80;80.30;;;;;;5092430;28;20020;-77
2022/09/16 06:47:08;;;;;;;2.72;2.53;;;18.80;80.20;;;;;;5093930;28;20028;-75
2022/09/16 06:49:33;;;;;;;3.42;2.60;;;18.90;80.20;;;;;;5092003;28;20024;-75
2022/09/16 06:51:59;;;;;;;2.50;2.30;;;18.90;80.10;;;;;;5093454;28;20028;-76
2022/09/16 06:54:25;;;;;;;2.80;2.50;;;19.00;80.00;;;;;;5093286;28;20026;-75
2022/09/16 06:56:50;;;;;;;2.78;2.58;;;19.00;79.90;;;;;;5092239;28;20025;-77
2022/09/16 06:59:16;;;;;;;2.70;2.50;;;19.00;79.70;;;;;;5092059;28;20492;-75
2022/09/16 07:01:42;;;;;;;2.78;2.58;;;19.10;79.70;;;;;;5091865;28;20053;-73
2022/09/16 07:04:09;;;;;;;2.92;2.65;;;19.10;79.60;;;;;;5092211;28;20032;-76
2022/09/16 07:06:36;;;;;;;2.78;2.58;;;19.00;79.50;;;;;;5092134;28;20024;-76
2022/09/16 07:09:02;;;;;;;3.10;2.80;;;19.00;79.50;;;;;;5092004;28;20504;-77
2022/09/16 07:11:28;;;;;;;3.10;2.75;;;19.00;79.60;;;;;;5095111;28;20024;-77
2022/09/16 07:13:54;;;;;;;3.20;2.90;;;19.00;80.10;;;;;;5096859;28;20099;-77
2022/09/16 07:16:23;;;;;;;2.95;2.70;;;19.00;79.60;;;;;;5097010;28;20059;-77
2022/09/16 07:18:58;;;;;;;3.22;2.90;;;19.00;79.60;;;;;;5095423;28;20111;-77
2022/09/16 07:21:28;;;;;;;2.67;2.47;;;19.10;79.60;;;;;;5095994;28;20059;-76
2022/09/16 07:23:56;;;;;;;3.15;2.75;;;19.10;79.60;;;;;;5096878;28;20094;-78
2022/09/16 07:26:27;;;;;;;3.03;2.78;;;19.10;79.60;;;;;;5095512;28;20033;-76
2022/09/16 07:28:54;;;;;;;3.58;3.22;;;19.10;79.50;;;;;;5095831;28;20028;-76
2022/09/16 07:31:26;;;;;;;3.10;2.80;;;19.10;79.40;;;;;;5095494;28;20051;-77
2022/09/16 07:33:54;;;;;;;3.40;3.10;;;19.10;79.30;;;;;;5097058;28;20028;-76
2022/09/16 07:36:26;;;;;;;2.92;2.60;;;19.10;79.30;;;;;;5095766;28;20077;-78
2022/09/16 07:38:56;;;;;;;3.17;2.90;;;19.10;79.30;;;;;;5098079;28;20028;-76
2022/09/16 07:41:24;;;;;;;3.13;2.72;;;19.10;79.40;;;;;;5098503;28;20040;-78
2022/09/16 07:43:50;;;;;;;3.17;2.88;;;19.10;79.40;;;;;;5078287;28;20020;-78
2022/09/16 07:46:17;;;;;;;4.35;3.00;;;19.00;79.40;;;;;;5096563;28;20068;-77
2022/09/16 07:48:45;;;;;;;4.32;3.35;;;19.00;79.40;;;;;;5079267;28;20024;-76
2022/09/16 07:51:14;;;;;;;3.95;3.55;;;19.00;79.40;;;;;;5096997;28;20351;-77
2022/09/16 07:53:40;;;;;;;4.20;3.70;;;19.00;79.40;;;;;;5078353;28;20024;-76
2022/09/16 07:56:11;;;;;;;4.53;3.85;;;19.00;79.50;;;;;;5078329;28;20419;-77
2022/09/16 07:58:38;;;;;;;4.45;3.88;;;19.00;79.40;;;;;;5096031;28;20166;-78
2022/09/16 08:01:06;;;;;;;5.68;4.10;;;19.00;79.40;;;;;;5078785;28;20040;-76
2022/09/16 08:03:33;;;;;;;4.28;3.88;;;19.00;79.50;;;;;;5096167;28;20385;-77
2022/09/16 08:06:02;;;;;;;4.88;4.15;;;19.00;79.50;;;;;;5096048;28;20028;-77
2022/09/16 08:08:29;;;;;;;4.95;4.38;;;19.00;79.50;;;;;;5095723;28;20032;-76
2022/09/16 08:10:56;;;;;;;4.90;4.40;;;19.10;79.50;;;;;;5077613;28;20501;-78
2022/09/16 08:13:23;;;;;;;6.38;4.70;;;19.10;79.40;;;;;;5096016;28;20031;-78
2022/09/16 08:15:49;;;;;;;5.93;4.75;;;19.10;79.30;;;;;;5095838;28;20480;-76
2022/09/16 08:18:15;;;;;;;5.47;4.97;;;19.20;79.20;;;;;;5078194;28;20077;-78
2022/09/16 08:20:40;;;;;;;5.63;4.95;;;19.30;79.20;;;;;;5096100;28;20028;-78
2022/09/16 08:23:06;;;;;;;5.35;4.85;;;19.40;79.10;;;;;;5076736;28;20020;-76
2022/09/16 08:25:32;;;;;;;5.32;4.80;;;19.50;78.90;;;;;;5077711;28;20039;-77
2022/09/16 08:27:58;;;;;;;5.72;5.13;;;19.60;78.70;;;;;;5096018;28;20492;-77
2022/09/16 08:30:23;;;;;;;5.43;4.90;;;19.70;78.40;;;;;;5077618;28;20051;-77
2022/09/16 08:32:58;;;;;;;5.60;4.93;;;19.90;78.20;;;;;;5095899;28;20036;-77
2022/09/16 08:35:25;;;;;;;5.50;5.00;;;19.90;78.00;;;;;;5095916;28;20450;-76
2022/09/16 08:37:51;;;;;;;7.57;5.60;;;19.90;77.80;;;;;;5095190;28;20020;-77
2022/09/16 08:40:22;;;;;;;6.20;5.60;;;20.00;77.70;;;;;;5077048;28;20047;-77
2022/09/16 08:42:53;;;;;;;7.05;6.15;;;20.00;77.60;;;;;;5092498;28;20083;-77
2022/09/16 08:45:51;;;;;;;5.90;5.30;;;20.10;77.50;;;;;;5094302;28;20065;-77
2022/09/16 08:48:22;;;;;;;6.28;5.38;;;20.10;77.40;;;;;;5063480;28;20043;-76
2022/09/16 08:50:49;;;;;;;5.70;4.97;;;20.20;77.30;;;;;;5093613;28;20119;-77
2022/09/16 08:53:34;;;;;;;5.88;5.28;;;20.20;77.30;;;;;;5093863;28;20112;-77
2022/09/16 08:56:04;;;;;;;5.20;4.70;;;20.20;77.10;;;;;;5093882;28;20031;-77
2022/09/16 08:58:53;;;;;;;5.07;4.57;;;20.20;77.10;;;;;;5093694;28;20077;-77
2022/09/16 09:01:24;;;;;;;4.43;4.03;;;20.10;77.10;;;;;;5094835;28;20027;-78
2022/09/16 09:03:50;;;;;;;4.93;4.20;;;20.20;77.30;;;;;;5093515;28;20028;-77
2022/09/16 09:06:43;;;;;;;4.55;4.05;;;20.20;77.30;;;;;;5094568;28;20028;-77
2022/09/16 09:09:30;;;;;;;5.00;4.03;;;20.30;77.10;;;;;;5093319;28;20035;-78
2022/09/16 09:12:13;;;;;;;4.60;4.15;;;20.30;77.00;;;;;;5094908;28;20489;-76
2022/09/16 09:14:58;;;;;;;4.18;3.78;;;20.40;76.90;;;;;;5093599;28;20114;-77
2022/09/16 09:17:52;;;;;;;4.30;3.90;;;20.40;76.70;;;;;;5093448;28;20030;-77
2022/09/16 09:20:18;;;;;;;4.38;3.97;;;20.50;76.60;;;;;;5093165;28;20032;-77
2022/09/16 09:22:44;;;;;;;4.60;4.00;;;20.50;76.60;;;;;;5094510;28;20224;-77
2022/09/16 09:25:45;;;;;;;4.28;3.88;;;20.50;76.40;;;;;;5094326;28;20024;-79
2022/09/16 09:28:40;;;;;;;4.30;3.90;;;20.40;76.20;;;;;;5094783;28;20116;-77
2022/09/16 09:31:21;;;;;;;4.00;3.60;;;20.40;76.50;;;;;;5094788;28;20036;-76
2022/09/16 09:34:25;;;;;;;4.57;4.18;;;20.30;76.50;;;;;;5092991;28;20109;-78
2022/09/16 09:36:53;;;;;;;4.90;4.40;;;20.30;76.50;;;;;;5063197;28;20032;-77
2022/09/16 09:39:31;;;;;;;5.55;4.95;;;20.30;76.70;;;;;;5094140;28;20085;-77
2022/09/16 09:42:10;;;;;;;5.53;4.93;;;20.30;76.50;;;;;;5094785;28;20083;-76
2022/09/16 09:44:51;;;;;;;6.53;5.82;;;20.30;76.50;;;;;;5076580;28;20024;-76
2022/09/16 09:47:46;;;;;;;7.15;6.45;;;20.20;76.60;;;;;;5094746;28;20089;-77
2022/09/16 09:50:32;;;;;;;;;;;20.20;76.60;;;;;;5094687;28;20480;-79
2022/09/16 09:53:10;;;;;;;6.45;5.68;;;20.20;76.70;;;;;;5093358;28;19916;-77
2022/09/16 09:55:36;;;;;;;6.88;6.18;;;20.20;76.70;;;;;;5093991;28;20024;-77
2022/09/16 09:58:17;;;;;;;6.93;6.22;;;20.30;76.80;;;;;;5075918;28;20050;-77
2022/09/16 10:00:43;;;;;;;7.10;6.28;;;20.30;76.60;;;;;;5078708;28;20024;-76
2022/09/16 10:03:16;;;;;;;7.65;6.70;;;20.40;76.50;;;;;;5094022;28;20070;-76
2022/09/16 10:05:44;;;;;;;8.00;6.63;;;20.40;76.30;;;;;;5075818;28;20475;-77
2022/09/16 10:08:25;;;;;;;8.18;6.80;;;20.50;76.10;;;;;;5094371;28;20027;-77
2022/09/16 10:10:54;;;;;;;7.88;7.07;;;20.60;76.00;;;;;;5094069;28;20039;-76
2022/09/16 10:13:21;;;;;;;7.35;6.65;;;20.60;75.80;;;;;;5075797;28;20077;-76
2022/09/16 10:15:47;;;;;;;7.57;6.78;;;20.60;75.70;;;;;;5075857;28;20024;-77
2022/09/16 10:18:24;;;;;;;7.03;6.32;;;20.60;75.60;;;;;;5075673;28;20024;-76
2022/09/16 10:21:03;;;;;;;7.35;6.57;;;20.70;75.50;;;;;;5093859;28;20029;-77
2022/09/16 10:23:29;;;;;;;6.20;5.57;;;20.70;75.50;;;;;;5075905;28;20469;-76
2022/09/16 10:26:27;;;;;;;7.00;5.85;;;20.70;75.40;;;;;;5075555;28;20161;-77
2022/09/16 10:28:54;;;;;;;5.90;5.15;;;20.80;75.10;;;;;;5093818;28;20029;-77
2022/09/16 10:31:20;;;;;;;5.75;5.18;;;20.80;75.20;;;;;;5093971;28;20020;-77
2022/09/16 10:33:46;;;;;;;6.55;5.43;;;20.80;75.10;;;;;;5075668;28;20024;-77
2022/09/16 10:36:21;;;;;;;5.45;4.95;;;20.80;75.00;;;;;;5075618;28;20120;-75
2022/09/16 10:38:57;;;;;;;5.40;4.90;;;20.80;74.90;;;;;;5075642;28;20055;-78
2022/09/16 10:41:26;;;;;;;5.50;4.90;;;20.90;74.80;;;;;;5078427;28;20043;-77
2022/09/16 10:44:19;;;;;;;5.00;4.50;;;20.90;74.80;;;;;;5092187;28;20611;-76
2022/09/16 10:46:57;;;;;;;5.45;4.68;;;20.90;74.80;;;;;;5078992;28;20111;-77
2022/09/16 10:49:50;;;;;;;4.53;4.00;;;20.90;74.40;;;;;;5097153;28;20078;-76
2022/09/16 10:52:18;;;;;;;4.30;3.90;;;21.00;74.10;;;;;;5097563;28;20035;-76
2022/09/16 10:54:44;;;;;;;4.90;3.83;;;21.00;74.30;;;;;;5095963;28;20473;-77
2022/09/16 10:57:24;;;;;;;3.75;3.45;;;21.00;74.20;;;;;;5097411;28;20020;-77
2022/09/16 11:00:12;;;;;;;4.78;3.88;;;21.10;74.00;;;;;;5096085;28;20054;-76
2022/09/16 11:02:43;;;;;;;4.72;3.50;;;21.20;73.80;;;;;;5097398;28;20035;-78
2022/09/16 11:05:13;;;;;;;4.13;3.42;;;21.20;73.80;;;;;;5097414;28;20373;-76
2022/09/16 11:07:51;;;;;;;3.80;3.40;;;21.20;73.60;;;;;;5095877;28;20025;-76
2022/09/16 11:10:43;;;;;;;3.88;3.15;;;21.20;73.40;;;;;;5095872;28;20039;-76
2022/09/16 11:13:21;;;;;;;3.30;3.00;;;21.20;73.20;;;;;;5097128;28;20028;-77
2022/09/16 11:16:17;;;;;;;3.65;3.35;;;21.10;72.90;;;;;;5097439;28;20032;-76
2022/09/16 11:18:53;;;;;;;2.97;2.70;;;21.10;72.70;;;;;;5096037;28;20032;-77
2022/09/16 11:21:42;;;;;;;3.20;2.90;;;21.10;72.80;;;;;;5096429;28;20377;-76
2022/09/16 11:24:27;;;;;;;3.10;2.70;;;21.10;72.10;;;;;;5097004;28;20028;-75
2022/09/16 11:27:10;;;;;;;3.28;2.90;;;21.10;72.50;;;;;;5096798;28;20028;-76
2022/09/16 11:29:50;;;;;;;4.28;2.90;;;20.90;72.20;;;;;;5096868;28;20039;-76
2022/09/16 11:32:43;;;;;;;3.13;2.83;;;21.10;72.50;;;;;;5097003;28;20042;-76
2022/09/16 11:35:33;;;;;;;2.75;2.53;;;21.10;72.40;;;;;;5095263;28;20461;-76
2022/09/16 11:38:19;;;;;;;3.10;2.80;;;21.10;72.00;;;;;;5098102;28;20107;-76
2022/09/16 11:41:04;;;;;;;2.90;2.70;;;21.20;72.20;;;;;;5096037;28;20039;-76
2022/09/16 11:43:42;;;;;;;5.05;2.85;;;21.20;72.00;;;;;;5078737;28;20020;-77
2022/09/16 11:46:14;;;;;;;3.03;2.58;;;21.50;72.00;;;;;;5078475;28;20032;-77
2022/09/16 11:48:48;;;;;;;2.78;2.55;;;21.20;71.90;;;;;;5078352;28;20063;-77
2022/09/16 11:51:43;;;;;;;2.70;2.45;;;21.30;71.90;;;;;;5078423;28;20038;-76
2022/09/16 11:54:44;;;;;;;2.58;2.38;;;21.30;71.60;;;;;;5078298;28;20036;-76
2022/09/16 11:57:15;;;;;;;3.15;2.85;;;21.30;71.40;;;;;;5096626;28;20112;-75
2022/09/16 12:00:01;;;;;;;3.03;2.70;;;21.30;71.70;;;;;;5078215;28;20119;-77
2022/09/16 12:02:30;;;;;;;2.83;2.53;;;21.30;71.60;;;;;;5096317;28;20243;-76
2022/09/16 12:05:06;;;;;;;3.00;2.80;;;21.30;71.50;;;;;;5078162;28;20492;-76
2022/09/16 12:07:41;;;;;;;2.75;2.50;;;21.30;71.50;;;;;;5078170;28;20032;-76
2022/09/16 12:10:31;;;;;;;2.90;2.65;;;21.40;71.30;;;;;;5096013;28;20127;-77
2022/09/16 12:13:18;;;;;;;3.03;2.72;;;21.40;71.30;;;;;;5096122;28;20036;-78
2022/09/16 12:15:49;;;;;;;2.58;2.38;;;21.40;71.10;;;;;;5096765;28;20497;-77
2022/09/16 12:18:23;;;;;;;2.50;2.30;;;21.40;71.30;;;;;;5096116;28;20542;-76
2022/09/16 12:21:13;;;;;;;3.00;2.75;;;21.50;71.20;;;;;;5080683;28;20385;-78
2022/09/16 12:23:54;;;;;;;2.50;2.30;;;21.50;70.90;;;;;;5095755;28;20056;-76
2022/09/16 12:27:02;;;;;;;2.90;2.60;;;21.60;70.90;;;;;;5077443;28;20039;-77
2022/09/16 12:30:03;;;;;;;2.65;2.45;;;21.60;70.50;;;;;;5077798;28;20362;-76
2022/09/16 12:32:43;;;;;;;2.88;2.53;;;21.70;70.30;;;;;;5041705;28;20097;-78
2022/09/16 12:35:21;;;;;;;2.83;2.63;;;21.80;70.50;;;;;;5095437;28;20111;-77
2022/09/16 12:37:49;;;;;;;2.65;2.45;;;21.90;70.40;;;;;;5095337;28;20030;-77
2022/09/16 12:40:27;;;;;;;3.10;2.78;;;21.90;70.40;;;;;;5077494;28;20028;-77
2022/09/16 12:43:11;;;;;;;2.70;2.50;;;22.00;70.70;;;;;;5095660;28;20397;-77
2022/09/16 12:45:52;;;;;;;3.45;3.15;;;22.10;69.80;;;;;;5095289;28;20028;-77
2022/09/16 12:48:59;;;;;;;3.47;2.80;;;22.30;69.70;;;;;;5095243;28;20473;-76
2022/09/16 12:52:00;;;;;;;3.33;2.92;;;22.40;69.40;;;;;;5047869;28;20044;-76
2022/09/16 12:54:47;;;;;;;2.70;2.50;;;22.40;69.10;;;;;;5060061;28;20023;-78
2022/09/16 12:57:17;;;;;;;3.10;2.80;;;22.30;69.80;;;;;;5077167;28;20024;-77
2022/09/16 13:00:08;;;;;;;3.35;2.90;;;22.30;69.20;;;;;;5076943;28;20119;-75
2022/09/16 13:02:37;;;;;;;3.40;3.10;;;22.10;69.00;;;;;;5076894;28;20028;-80
2022/09/16 13:05:13;;;;;;;3.33;3.03;;;22.00;69.40;;;;;;5076861;28;20031;-76
2022/09/16 13:07:39;;;;;;;3.47;3.17;;;21.90;69.40;;;;;;5094389;28;20077;-76
2022/09/16 13:10:17;;;;;;;3.95;3.55;;;21.80;69.60;;;;;;5076737;28;20028;-75
2022/09/16 13:12:53;;;;;;;3.53;3.22;;;21.70;69.70;;;;;;5076746;28;20032;-73
2022/09/16 13:15:37;;;;;;;3.67;3.28;;;21.60;69.70;;;;;;5076656;28;20476;-76
2022/09/16 13:18:15;;;;;;;4.40;3.57;;;21.50;69.70;;;;;;5094850;28;20070;-76
2022/09/16 13:20:49;;;;;;;3.35;3.05;;;21.40;69.90;;;;;;5076521;28;20352;-76
2022/09/16 13:23:18;;;;;;;;;;;21.30;70.00;;;;;;5060655;28;20427;-75
2022/09/16 13:25:49;;;;;;;3.33;3.03;;;21.20;69.70;;;;;;5095254;28;20344;-77